createdAt,value
2024-01-31T00:02:13.075Z,42.42
2024-01-31T00:07:15.435Z,40.05
2024-01-31T00:12:17.633Z,41.67
2024-01-31T00:17:19.921Z,41.95
2024-01-31T00:22:22.153Z,41.83
2024-01-31T00:27:24.370Z,40.63
2024-01-31T00:32:26.521Z,41.75
2024-01-31T00:37:28.690Z,39.15
2024-01-31T00:42:30.858Z,41.92
2024-01-31T00:47:33.133Z,42.15
2024-01-31T00:52:35.430Z,43.30
2024-01-31T00:57:37.689Z,43.95
2024-01-31T01:02:39.873Z,42.92
2024-01-31T01:07:42.783Z,44.67
2024-01-31T01:12:45.197Z,44.13
2024-01-31T01:17:47.409Z,43.72
2024-01-31T01:22:49.510Z,43.20
2024-01-31T01:27:51.682Z,44.70
2024-01-31T01:32:54.104Z,42.70
2024-01-31T01:37:56.351Z,43.90
2024-01-31T01:42:58.609Z,40.88
2024-01-31T01:48:01.489Z,42.40
2024-01-31T01:53:03.720Z,39.78
2024-01-31T01:58:06.543Z,41.53
2024-01-31T02:03:08.868Z,40.30
2024-01-31T02:08:11.184Z,42.97
2024-01-31T02:13:13.419Z,46.63
2024-01-31T02:18:15.864Z,42.33
2024-01-31T02:23:18.158Z,41.20
2024-01-31T02:28:20.353Z,38.15
2024-01-31T02:33:22.575Z,40.50
2024-01-31T02:38:24.768Z,39.88
2024-01-31T02:43:26.913Z,39.70
2024-01-31T02:48:29.197Z,36.80
2024-01-31T02:53:31.392Z,39.03
2024-01-31T02:58:33.769Z,37.03
2024-01-31T03:03:35.962Z,39.40
2024-01-31T03:08:38.112Z,37.70
2024-01-31T03:13:40.296Z,40.15
2024-01-31T03:18:42.552Z,37.50
2024-01-31T03:23:44.714Z,39.05
2024-01-31T03:28:47.010Z,40.88
2024-01-31T03:33:49.463Z,40.63
2024-01-31T03:38:51.823Z,39.42
2024-01-31T03:43:54.228Z,39.05
2024-01-31T03:48:56.451Z,40.30
2024-01-31T03:53:58.728Z,39.25
2024-01-31T03:59:00.867Z,38.55
2024-01-31T04:04:03.538Z,37.65
2024-01-31T04:09:05.706Z,38.20
2024-01-31T04:14:07.860Z,37.63
2024-01-31T04:19:10.162Z,37.38
2024-01-31T04:24:12.323Z,36.83
2024-01-31T04:29:14.533Z,36.58
2024-01-31T04:34:16.761Z,36.15
2024-01-31T04:39:18.964Z,33.75
2024-01-31T04:44:21.181Z,36.63
2024-01-31T04:49:23.456Z,32.67
2024-01-31T04:54:25.674Z,35.38
2024-01-31T04:59:27.819Z,35.42
2024-01-31T05:04:30.014Z,33.33
2024-01-31T05:09:32.219Z,33.42
2024-01-31T05:14:34.389Z,35.00
2024-01-31T05:19:36.742Z,33.40
2024-01-31T05:24:38.952Z,33.20
2024-01-31T05:29:41.249Z,34.30
2024-01-31T05:34:43.477Z,33.33
2024-01-31T05:39:45.697Z,34.13
2024-01-31T05:44:47.896Z,34.30
2024-01-31T05:49:50.107Z,34.00
2024-01-31T05:54:52.268Z,34.33
2024-01-31T05:59:54.510Z,35.90
2024-01-31T06:04:56.702Z,35.20
2024-01-31T06:09:58.870Z,36.30
2024-01-31T06:15:01.062Z,38.33
2024-01-31T06:20:03.463Z,36.05
2024-01-31T06:25:06.052Z,35.20
2024-01-31T06:30:08.609Z,35.85
2024-01-31T06:35:10.944Z,34.85
2024-01-31T06:40:13.447Z,34.88
2024-01-31T06:45:16.462Z,34.63
2024-01-31T06:50:19.306Z,34.55
2024-01-31T06:55:21.687Z,34.78
2024-01-31T07:00:23.968Z,31.17
2024-01-31T07:05:26.161Z,33.03
2024-01-31T07:10:28.515Z,34.38
2024-01-31T07:15:30.734Z,33.75
2024-01-31T07:20:32.844Z,37.42
2024-01-31T07:25:35.011Z,34.90
2024-01-31T07:30:37.265Z,34.70
2024-01-31T07:35:39.464Z,34.50
2024-01-31T07:40:41.669Z,33.50
2024-01-31T07:45:43.971Z,33.65
2024-01-31T07:50:46.158Z,33.78
2024-01-31T07:55:48.446Z,34.50
2024-01-31T08:00:50.699Z,37.88
2024-01-31T08:05:52.941Z,35.70
2024-01-31T08:10:55.152Z,35.97
2024-01-31T08:15:57.323Z,35.17
2024-01-31T08:20:59.783Z,33.85
2024-01-31T08:26:02.733Z,35.33
2024-01-31T08:31:05.053Z,34.05
2024-01-31T08:36:07.390Z,36.22
2024-01-31T08:41:09.547Z,34.90
2024-01-31T08:46:12.822Z,37.38
2024-01-31T08:51:15.119Z,35.95
2024-01-31T08:56:17.469Z,34.75
2024-01-31T09:01:19.835Z,35.13
2024-01-31T09:06:22.162Z,35.20
2024-01-31T09:11:24.281Z,35.03
2024-01-31T09:16:26.415Z,37.00
2024-01-31T09:21:28.635Z,35.35
2024-01-31T09:26:30.856Z,36.80
2024-01-31T09:31:33.598Z,37.88
2024-01-31T09:36:35.793Z,35.30
2024-01-31T09:41:38.042Z,34.13
2024-01-31T09:46:41.416Z,36.47
2024-01-31T09:51:43.669Z,34.30
2024-01-31T09:56:45.835Z,34.05
2024-01-31T10:01:49.142Z,34.55
2024-01-31T10:06:51.329Z,36.75
2024-01-31T10:11:53.628Z,35.97
2024-01-31T10:16:55.838Z,34.88
2024-01-31T10:21:59.460Z,34.05
2024-01-31T10:27:04.747Z,34.40
2024-01-31T10:32:07.517Z,36.22
2024-01-31T10:42:17.192Z,34.55
2024-01-31T10:47:19.430Z,35.90
2024-01-31T10:52:22.721Z,36.72
2024-01-31T10:57:25.045Z,36.63
2024-01-31T11:02:30.963Z,35.58
2024-01-31T11:07:33.181Z,35.22
2024-01-31T11:12:36.760Z,34.90
2024-01-31T11:17:39.411Z,33.05
2024-01-31T11:22:42.392Z,33.70
2024-01-31T11:27:45.772Z,32.88
2024-01-31T11:32:48.429Z,33.08
2024-01-31T11:37:53.841Z,34.05
2024-01-31T11:42:56.724Z,33.53
2024-01-31T11:48:00.213Z,32.92
2024-01-31T11:53:02.684Z,33.07
2024-01-31T11:58:05.074Z,32.50
2024-01-31T12:03:07.502Z,32.33
2024-01-31T12:08:09.706Z,35.42
2024-01-31T12:13:11.900Z,35.38
2024-01-31T12:18:14.555Z,34.00
2024-01-31T12:23:16.861Z,33.72
2024-01-31T12:28:18.988Z,34.03
2024-01-31T12:33:21.696Z,33.33
2024-01-31T12:38:23.968Z,34.78
2024-01-31T12:43:26.213Z,33.05
2024-01-31T12:48:29.008Z,35.88
2024-01-31T12:53:31.188Z,34.22
2024-01-31T12:58:33.396Z,35.08
2024-01-31T13:03:35.643Z,34.40
2024-01-31T13:08:38.270Z,30.60
2024-01-31T13:13:40.931Z,31.88
2024-01-31T13:18:43.369Z,33.95
2024-01-31T13:23:45.692Z,33.03
2024-01-31T13:28:47.917Z,33.25
2024-01-31T13:33:50.219Z,36.25
2024-01-31T13:38:52.644Z,35.17
2024-01-31T13:43:54.814Z,34.78
2024-01-31T13:48:57.119Z,35.33
2024-01-31T13:53:59.419Z,38.33
2024-01-31T13:59:01.620Z,35.55
2024-01-31T14:04:03.813Z,36.95
2024-01-31T14:09:06.187Z,34.55
2024-01-31T14:14:08.418Z,35.28
2024-01-31T14:19:10.963Z,37.97
2024-01-31T14:24:17.051Z,33.97
2024-01-31T14:29:20.895Z,35.15
2024-01-31T14:34:23.403Z,36.45
2024-01-31T14:39:33.162Z,35.60
2024-01-31T14:44:36.403Z,34.95
2024-01-31T14:49:38.736Z,36.50
2024-01-31T14:54:40.950Z,36.78
2024-01-31T14:59:43.166Z,37.05
2024-01-31T15:04:45.363Z,36.95
2024-01-31T15:09:47.514Z,37.75
2024-01-31T15:14:49.762Z,37.85
2024-01-31T15:19:51.977Z,37.08
2024-01-31T15:24:54.208Z,37.05
2024-01-31T15:29:56.555Z,38.70
2024-01-31T15:34:58.758Z,37.22
2024-01-31T15:40:01.166Z,36.63
2024-01-31T15:45:03.474Z,35.70
2024-01-31T15:50:06.349Z,34.45
2024-01-31T15:55:10.175Z,37.00
2024-01-31T16:00:12.711Z,35.58
2024-01-31T16:05:14.947Z,35.03
2024-01-31T16:10:17.145Z,37.33
2024-01-31T16:15:19.365Z,36.38
2024-01-31T16:20:21.623Z,41.70
2024-01-31T16:25:24.362Z,37.47
2024-01-31T16:30:26.522Z,37.20
2024-01-31T16:35:28.921Z,38.42
2024-01-31T16:40:31.381Z,41.03
2024-01-31T16:45:33.588Z,41.08
2024-01-31T16:50:35.911Z,39.40
2024-01-31T16:55:38.127Z,40.17
2024-01-31T17:00:40.320Z,42.25
2024-01-31T17:05:42.571Z,39.45
2024-01-31T17:10:44.945Z,45.28
2024-01-31T17:15:47.972Z,40.13
2024-01-31T17:20:50.651Z,49.42
2024-01-31T17:25:53.058Z,42.38
2024-01-31T17:30:55.221Z,41.25
2024-01-31T17:35:57.847Z,40.92
2024-01-31T17:41:00.030Z,51.03
2024-01-31T17:46:02.395Z,44.95
2024-01-31T17:51:04.799Z,49.80
2024-01-31T17:56:07.111Z,44.38
2024-01-31T18:01:09.287Z,48.58
2024-01-31T18:06:11.558Z,51.15
2024-01-31T18:11:13.800Z,63.58
2024-01-31T18:16:15.950Z,55.50
2024-01-31T18:21:18.278Z,55.63
2024-01-31T18:26:20.501Z,59.17
2024-01-31T18:31:23.118Z,63.95
2024-01-31T18:36:25.333Z,62.63
2024-01-31T18:41:27.594Z,63.10
2024-01-31T18:46:29.963Z,63.00
2024-01-31T18:51:32.163Z,65.90
2024-01-31T18:56:34.348Z,62.17
2024-01-31T19:01:36.670Z,67.40
2024-01-31T19:06:41.791Z,68.90
2024-01-31T19:11:44.147Z,71.57
2024-01-31T19:16:46.460Z,66.63
2024-01-31T19:21:48.923Z,73.68
2024-01-31T19:26:51.184Z,68.38
2024-01-31T19:31:53.502Z,71.78
2024-01-31T19:36:55.665Z,67.95
2024-01-31T19:41:57.900Z,68.80
2024-01-31T19:47:00.962Z,67.93
2024-01-31T19:52:03.160Z,71.82
2024-01-31T19:57:05.530Z,73.35
2024-01-31T20:02:08.529Z,71.75
2024-01-31T20:07:10.785Z,66.78
2024-01-31T20:12:13.109Z,75.03
2024-01-31T20:17:15.317Z,65.32
2024-01-31T20:22:17.512Z,72.18
2024-01-31T20:27:21.090Z,71.47
2024-01-31T20:32:24.410Z,69.47
2024-01-31T20:37:28.038Z,65.03
2024-01-31T20:42:30.124Z,68.05
2024-01-31T20:47:32.310Z,66.80
2024-01-31T20:52:34.471Z,68.35
2024-01-31T20:57:36.671Z,64.90
2024-01-31T21:02:38.887Z,64.15
2024-01-31T21:07:41.154Z,66.07
2024-01-31T21:12:43.388Z,67.63
2024-01-31T21:17:45.674Z,70.30
2024-01-31T21:22:47.876Z,70.03
2024-01-31T21:27:50.002Z,69.38
2024-01-31T21:32:52.264Z,65.47
2024-01-31T21:37:54.593Z,65.00
2024-01-31T21:42:56.852Z,69.22
2024-01-31T21:47:59.082Z,68.55
2024-01-31T21:53:01.340Z,64.80
2024-01-31T21:58:03.503Z,61.47
2024-01-31T22:03:05.926Z,60.22
2024-01-31T22:08:08.123Z,62.80
2024-01-31T22:13:10.310Z,59.47
2024-01-31T22:18:12.521Z,58.00
2024-01-31T22:23:14.827Z,60.80
2024-01-31T22:28:17.064Z,65.93
2024-01-31T22:33:19.523Z,61.47
2024-01-31T22:38:21.776Z,62.78
2024-01-31T22:43:24.110Z,63.90
2024-01-31T22:48:26.397Z,66.53
2024-01-31T22:53:28.676Z,58.88
2024-01-31T22:58:30.874Z,65.03
2024-01-31T23:03:33.085Z,65.28
2024-01-31T23:08:35.369Z,63.13
2024-01-31T23:13:37.587Z,63.10
2024-01-31T23:18:39.900Z,65.22
2024-01-31T23:23:42.365Z,63.97
2024-01-31T23:28:45.458Z,67.00
2024-01-31T23:33:47.777Z,64.85
2024-01-31T23:38:50.053Z,63.53
2024-01-31T23:43:52.204Z,58.95
2024-01-31T23:48:54.635Z,68.68
2024-01-31T23:53:56.952Z,66.18
2024-01-31T23:58:59.183Z,64.65
